Time;durP1;ratioP1;P1;durP2;ratioP2;P2;SDS_P1;SDS_P2;PMS_P1;PMS_P2;Temp;Humidity;BMP_temperature;BMP_pressure;BME280_temperature;BME280_humidity;BME280_pressure;Samples;Min_cycle;Max_cycle;Signal;HPM_P1;HPM_P2
2022/01/08 00:01:01;;;;;;;5.00;2.65;;;;;;;;;;5019914;28;20025;-85
2022/01/08 00:03:30;;;;;;;6.60;2.88;;;;;;;;;;5020272;28;20019;-85
2022/01/08 00:05:57;;;;;;;5.50;2.40;;;;;;;;;;5020244;28;19998;-84
2022/01/08 00:08:23;;;;;;;6.32;2.17;;;;;;;;;;5772655;22;20025;-84
2022/01/08 00:10:51;;;;;;;6.40;2.28;;;;;;;;;;5043786;28;20025;-84
2022/01/08 00:13:17;;;;;;;5.63;3.05;;;;;;;;;;5044102;28;20044;-84
2022/01/08 00:15:43;;;;;;;4.75;2.03;;;;;;;;;;5043500;28;20009;-84
2022/01/08 00:18:09;;;;;;;4.88;2.40;;;;;;;;;;5059545;28;20055;-84
2022/01/08 00:20:37;;;;;;;4.25;2.10;;;;;;;;;;5060225;28;20025;-84
2022/01/08 00:23:03;;;;;;;3.80;2.13;;;;;;;;;;5044156;28;20028;-85
2022/01/08 00:25:32;;;;;;;5.60;2.33;;;;;;;;;;5059006;28;20041;-83
2022/01/08 00:27:58;;;;;;;3.53;2.20;;;;;;;;;;5059373;28;20040;-83
2022/01/08 00:30:24;;;;;;;4.32;2.35;;;;;;;;;;5059034;28;20017;-84
2022/01/08 00:32:49;;;;;;;3.47;1.83;;;;;;;;;;5060002;28;20014;-84
2022/01/08 00:35:17;;;;;;;4.75;1.90;;;;;;;;;;5060490;28;19997;-84
2022/01/08 00:37:43;;;;;;;4.32;1.90;;;;;;;;;;5187346;22;20072;-85
2022/01/08 00:40:10;;;;;;;4.15;2.00;;;;;;;;;;5056387;28;20026;-84
2022/01/08 00:42:39;;;;;;;3.42;1.90;;;;;;;;;;5056878;28;20021;-84
2022/01/08 00:45:08;;;;;;;3.92;2.08;;;;;;;;;;5090528;22;20029;-84
2022/01/08 00:47:34;;;;;;;;;;;;;;;;;;5060246;28;20021;-83
2022/01/08 00:49:59;;;;;;;3.38;2.03;;;;;;;;;;5060660;28;19924;-84
2022/01/08 00:52:26;;;;;;;3.17;1.80;;;;;;;;;;5058480;28;20018;-86
2022/01/08 00:57:26;;;;;;;4.05;1.88;;;;;;;;;;5216769;22;20034;-86
2022/01/08 00:59:52;;;;;;;3.60;2.15;;;;;;;;;;5044015;28;20013;-86
2022/01/08 01:02:18;;;;;;;4.47;1.95;;;;;;;;;;5042398;28;20001;-86
2022/01/08 01:07:21;;;;;;;3.80;1.80;;;;;;;;;;5202731;22;20057;-86
2022/01/08 01:09:53;;;;;;;3.35;1.80;;;;;;;;;;5232983;22;20032;-87
2022/01/08 01:12:19;;;;;;;3.17;1.70;;;;;;;;;;5087273;22;20534;-86
2022/01/08 01:14:44;;;;;;;4.07;1.98;;;;;;;;;;5079297;28;20057;-85
2022/01/08 01:17:13;;;;;;;4.10;1.88;;;;;;;;;;5094282;28;20036;-86
2022/01/08 01:19:39;;;;;;;3.83;1.80;;;;;;;;;;5095577;28;20112;-85
2022/01/08 01:22:05;;;;;;;3.35;1.90;;;;;;;;;;5077382;28;20028;-86
2022/01/08 01:24:33;;;;;;;3.13;1.65;;;;;;;;;;5078319;28;20019;-84
2022/01/08 01:29:58;;;;;;;3.80;2.10;;;;;;;;;;5079860;28;20043;-84
2022/01/08 01:46:59;;;;;;;3.10;1.85;;;;;;;;;;5078566;28;20032;-84
2022/01/08 01:48:56;;;;;;;2.85;1.58;;;;;;;;;;5095709;28;20033;-86
2022/01/08 01:51:23;;;;;;;3.30;1.80;;;;;;;;;;5098905;28;20076;-84
2022/01/08 01:58:59;;;;;;;5.22;2.20;;;;;;;;;;5424257;22;20053;-83
2022/01/08 02:01:28;;;;;;;3.28;1.88;;;;;;;;;;5435274;22;20812;-85
2022/01/08 02:03:59;;;;;;;3.70;2.00;;;;;;;;;;5058918;28;20022;-85
2022/01/08 02:12:02;;;;;;;3.67;1.97;;;;;;;;;;5790740;22;20066;-86
2022/01/08 02:14:28;;;;;;;3.97;2.03;;;;;;;;;;5040464;28;20045;-86
2022/01/08 02:17:02;;;;;;;2.90;1.50;;;;;;;;;;5042186;28;20012;-88
2022/01/08 02:24:43;;;;;;;7.28;2.78;;;;;;;;;;5900933;22;20049;-87
2022/01/08 02:27:09;;;;;;;3.38;2.00;;;;;;;;;;5021393;28;20028;-87
2022/01/08 02:39:56;;;;;;;4.32;1.80;;;;;;;;;;5750498;22;20033;-87
2022/01/08 02:42:25;;;;;;;4.25;1.90;;;;;;;;;;5040292;28;20476;-86
2022/01/08 02:44:56;;;;;;;4.50;2.25;;;;;;;;;;5040920;28;20017;-87
2022/01/08 02:47:22;;;;;;;3.08;1.77;;;;;;;;;;5041073;28;20026;-86
2022/01/08 02:49:52;;;;;;;2.85;1.95;;;;;;;;;;5058073;28;20052;-86
2022/01/08 02:52:21;;;;;;;4.93;2.15;;;;;;;;;;5040718;28;20001;-86
2022/01/08 02:54:49;;;;;;;3.63;2.00;;;;;;;;;;5041447;28;20017;-86
2022/01/08 02:57:19;;;;;;;4.00;1.83;;;;;;;;;;5057156;28;20019;-86
2022/01/08 02:59:49;;;;;;;3.10;1.98;;;;;;;;;;5039784;28;20048;-86
2022/01/08 03:02:18;;;;;;;4.13;2.10;;;;;;;;;;5342635;23;20046;-87
2022/01/08 03:05:04;;;;;;;4.65;2.00;;;;;;;;;;5001264;28;20011;-88
2022/01/08 03:07:29;;;;;;;6.30;1.95;;;;;;;;;;4993082;28;20022;-86
2022/01/08 03:25:38;;;;;;;3.75;2.25;;;;;;;;;;5732756;22;20053;-89
2022/01/08 03:33:28;;;;;;;3.80;1.85;;;;;;;;;;5754918;22;20121;-87
2022/01/08 03:36:08;;;;;;;4.93;2.28;;;;;;;;;;5017919;28;20015;-88
2022/01/08 03:38:35;;;;;;;3.55;2.05;;;;;;;;;;5017900;28;20022;-88
2022/01/08 03:41:01;;;;;;;5.25;2.35;;;;;;;;;;5001522;28;20014;-88
2022/01/08 03:43:27;;;;;;;4.28;2.00;;;;;;;;;;5017295;28;20019;-86
2022/01/08 03:46:01;;;;;;;4.22;2.10;;;;;;;;;;5000800;28;20026;-87
2022/01/08 03:48:45;;;;;;;3.72;2.00;;;;;;;;;;5000598;28;20018;-87
2022/01/08 03:53:57;;;;;;;3.70;2.30;;;;;;;;;;5855575;23;20047;-87
2022/01/08 04:14:36;;;;;;;5.55;2.80;;;;;;;;;;5307591;22;20093;-87
2022/01/08 04:19:37;;;;;;;4.63;2.28;;;;;;;;;;5232637;22;20035;-87
2022/01/08 04:27:22;;;;;;;7.20;2.85;;;;;;;;;;5055957;22;20083;-87
2022/01/08 04:29:52;;;;;;;5.07;2.83;;;;;;;;;;5016956;28;20015;-86
2022/01/08 04:32:18;;;;;;;5.70;2.70;;;;;;;;;;5002661;28;20011;-87
2022/01/08 04:34:45;;;;;;;6.88;2.95;;;;;;;;;;5004738;28;20014;-87
2022/01/08 04:44:56;;;;;;;5.30;3.15;;;;;;;;;;6084474;22;20048;-86
2022/01/08 05:02:55;;;;;;;8.73;3.40;;;;;;;;;;5194188;22;20038;-87
2022/01/08 05:05:21;;;;;;;;;;;;;;;;;;5020885;28;20007;-88
2022/01/08 05:15:39;;;;;;;7.55;3.30;;;;;;;;;;5873561;23;20058;-87
2022/01/08 05:18:09;;;;;;;7.47;3.03;;;;;;;;;;5020061;28;20037;-87
2022/01/08 05:20:44;;;;;;;6.95;3.05;;;;;;;;;;5003380;28;20026;-87
2022/01/08 05:25:45;;;;;;;7.15;2.97;;;;;;;;;;5721459;22;20041;-87
2022/01/08 06:50:50;;;;;;;7.47;3.28;;;;;;;;;;5261580;22;20044;-87
2022/01/08 06:53:22;;;;;;;5.30;3.30;;;;;;;;;;5021173;28;20025;-87
2022/01/08 06:55:48;;;;;;;6.88;3.22;;;;;;;;;;5020469;28;20025;-87
2022/01/08 06:58:19;;;;;;;7.40;3.47;;;;;;;;;;5031023;28;20077;-87
2022/01/08 07:00:46;;;;;;;6.28;3.25;;;;;;;;;;5040839;28;20054;-86
2022/01/08 07:05:57;;;;;;;7.38;3.33;;;;;;;;;;5821423;22;20026;-87
2022/01/08 07:08:23;;;;;;;4.90;2.83;;;;;;;;;;5032525;28;20025;-88
2022/01/08 09:01:16;;;;;;;5.28;2.70;;;;;;;;;;5385953;22;20195;-78
2022/01/08 09:03:41;;;;;;;6.75;2.53;;;;;;;;;;5034254;28;20037;-77
2022/01/08 09:06:06;;;;;;;8.02;4.68;;;;;;;;;;5018954;28;20026;-79
2022/01/08 09:08:32;;;;;;;12.38;6.13;;;;;;;;;;5048055;28;20013;-78
2022/01/08 09:10:57;;;;;;;7.97;3.90;;;;;;;;;;5055474;28;20009;-78
2022/01/08 09:13:25;;;;;;;9.07;3.08;;;;;;;;;;5038490;28;20104;-79
2022/01/08 09:15:50;;;;;;;8.70;3.47;;;;;;;;;;5056786;28;20460;-79
2022/01/08 09:18:16;;;;;;;10.30;2.83;;;;;;;;;;5057878;28;20021;-79
2022/01/08 09:20:41;;;;;;;6.55;2.22;;;;;;;;;;5059131;28;20025;-79
2022/01/08 09:23:07;;;;;;;7.15;2.22;;;;;;;;;;5061572;28;20107;-80
2022/01/08 09:56:33;;;;;;;4.05;1.80;;;;;;;;;;5333372;22;20284;-87
2022/01/08 10:09:19;;;;;;;7.18;2.75;;;;;;;;;;5492469;22;20109;-87
2022/01/08 10:56:56;;;;;;;7.18;2.90;;;;;;;;;;5898012;22;20049;-85
2022/01/08 11:22:39;;;;;;;7.90;3.08;;;;;;;;;;5760166;22;20045;-86
2022/01/08 11:30:39;;;;;;;7.82;3.25;;;;;;;;;;6057024;22;20027;-86
2022/01/08 11:33:15;;;;;;;8.02;3.28;;;;;;;;;;5057122;28;20048;-85
2022/01/08 11:41:02;;;;;;;10.70;3.75;;;;;;;;;;5035599;28;20034;-87
2022/01/08 11:43:33;;;;;;;6.47;3.53;;;;;;;;;;5020656;28;20024;-85
2022/01/08 11:46:04;;;;;;;8.85;4.07;;;;;;;;;;5020588;28;20073;-86
2022/01/08 11:48:31;;;;;;;8.32;3.80;;;;;;;;;;5019689;28;20098;-84
2022/01/08 11:50:58;;;;;;;8.57;4.07;;;;;;;;;;5019165;28;20037;-85
2022/01/08 11:53:28;;;;;;;10.07;4.18;;;;;;;;;;5018725;28;20083;-85
2022/01/08 11:56:00;;;;;;;8.07;4.00;;;;;;;;;;5019335;28;20022;-84
2022/01/08 11:58:27;;;;;;;12.43;3.85;;;;;;;;;;5172005;22;20051;-83
2022/01/08 12:24:20;;;;;;;9.07;4.60;;;;;;;;;;5316796;23;20136;-84
2022/01/08 12:26:46;;;;;;;8.38;4.50;;;;;;;;;;5055599;28;20094;-82
2022/01/08 12:29:31;;;;;;;7.72;4.13;;;;;;;;;;5057661;28;20021;-86
2022/01/08 13:13:20;;;;;;;7.50;3.60;;;;;;;;;;5184062;22;20112;-93
2022/01/08 13:15:45;;;;;;;7.00;3.53;;;;;;;;;;5048456;28;20013;-92
2022/01/08 13:18:17;;;;;;;13.10;4.45;;;;;;;;;;5041565;28;20033;-91
2022/01/08 13:20:43;;;;;;;9.65;3.90;;;;;;;;;;5047461;28;20021;-87
2022/01/08 13:23:12;;;;;;;6.75;3.40;;;;;;;;;;5045822;28;20029;-90
2022/01/08 13:25:37;;;;;;;12.57;3.97;;;;;;;;;;5045387;28;20025;-92
2022/01/08 13:28:02;;;;;;;8.70;3.47;;;;;;;;;;5064213;28;20464;-90
2022/01/08 13:30:28;;;;;;;4.95;3.22;;;;;;;;;;5044786;28;20084;-88
2022/01/08 13:33:04;;;;;;;7.93;3.78;;;;;;;;;;5073819;28;20013;-83
2022/01/08 13:35:38;;;;;;;9.38;4.28;;;;;;;;;;5059533;28;20020;-84
2022/01/08 13:38:09;;;;;;;11.30;4.43;;;;;;;;;;5060983;28;20002;-84
2022/01/08 13:40:42;;;;;;;8.88;3.88;;;;;;;;;;5079397;28;20017;-85
2022/01/08 13:43:08;;;;;;;6.15;3.30;;;;;;;;;;5078194;28;20021;-83
2022/01/08 13:45:35;;;;;;;7.88;3.47;;;;;;;;;;5074637;28;20031;-84
2022/01/08 13:48:09;;;;;;;10.98;3.85;;;;;;;;;;5060666;28;20009;-85
2022/01/08 13:50:40;;;;;;;10.63;4.57;;;;;;;;;;5078990;28;20040;-84
2022/01/08 13:53:08;;;;;;;10.73;4.35;;;;;;;;;;5078357;28;20016;-83
2022/01/08 13:55:45;;;;;;;10.23;3.60;;;;;;;;;;5077107;28;20025;-82
2022/01/08 13:58:18;;;;;;;10.18;4.50;;;;;;;;;;5077063;28;20085;-83
2022/01/08 14:00:45;;;;;;;9.68;4.47;;;;;;;;;;5059809;28;19997;-83
2022/01/08 14:03:27;;;;;;;10.52;4.85;;;;;;;;;;5075816;28;20104;-83
2022/01/08 14:05:59;;;;;;;11.40;3.97;;;;;;;;;;5077342;28;20009;-82
2022/01/08 14:08:29;;;;;;;10.20;4.10;;;;;;;;;;5062229;28;20037;-83
2022/01/08 14:21:15;;;;;;;14.52;3.88;;;;;;;;;;5731964;22;20033;-84
2022/01/08 14:23:41;;;;;;;6.60;3.13;;;;;;;;;;5038977;28;20133;-84
2022/01/08 14:26:18;;;;;;;13.70;4.85;;;;;;;;;;5038101;28;20037;-86
2022/01/08 14:29:00;;;;;;;5.65;2.70;;;;;;;;;;5036107;28;20063;-86
2022/01/08 14:31:29;;;;;;;12.45;3.25;;;;;;;;;;5041782;28;20026;-86
2022/01/08 14:39:05;;;;;;;13.10;3.75;;;;;;;;;;5665593;22;20037;-86
2022/01/08 14:41:34;;;;;;;10.43;3.75;;;;;;;;;;5054296;28;20028;-84
2022/01/08 14:46:45;;;;;;;9.60;3.35;;;;;;;;;;5676848;22;20097;-85
2022/01/08 14:49:11;;;;;;;10.20;3.38;;;;;;;;;;5092142;28;20086;-84
2022/01/08 14:54:12;;;;;;;10.75;4.15;;;;;;;;;;5131565;22;20049;-85
2022/01/08 14:56:44;;;;;;;14.55;4.25;;;;;;;;;;5041022;28;20018;-84
2022/01/08 14:59:10;;;;;;;12.63;4.30;;;;;;;;;;5075072;28;20025;-84
2022/01/08 15:01:35;;;;;;;12.23;3.50;;;;;;;;;;5060448;28;20062;-84
2022/01/08 15:04:01;;;;;;;9.77;3.63;;;;;;;;;;5077382;28;20017;-84
2022/01/08 15:06:27;;;;;;;11.60;3.75;;;;;;;;;;5077704;28;20059;-86
2022/01/08 15:08:56;;;;;;;7.95;3.47;;;;;;;;;;5077847;28;20045;-86
2022/01/08 15:11:21;;;;;;;;;;;;;;;;;;5059556;28;20017;-84
2022/01/08 15:13:51;;;;;;;11.05;3.40;;;;;;;;;;5059369;28;19920;-84
2022/01/08 15:16:17;;;;;;;6.25;2.75;;;;;;;;;;5081186;22;20006;-83
2022/01/08 15:18:42;;;;;;;9.43;3.42;;;;;;;;;;5124261;23;20058;-83
2022/01/08 15:21:09;;;;;;;10.93;3.92;;;;;;;;;;4997804;28;20030;-86
2022/01/08 15:23:35;;;;;;;8.55;3.88;;;;;;;;;;4998261;28;20009;-84
2022/01/08 15:26:03;;;;;;;11.18;4.65;;;;;;;;;;4998946;28;20090;-84
2022/01/08 15:28:33;;;;;;;13.50;4.90;;;;;;;;;;4998559;28;20034;-85
2022/01/08 15:33:35;;;;;;;19.30;6.70;;;;;;;;;;5810254;22;20046;-84
2022/01/08 15:36:01;;;;;;;12.15;5.85;;;;;;;;;;5000476;28;20019;-84
2022/01/08 15:38:28;;;;;;;11.88;4.85;;;;;;;;;;5020606;28;20030;-84
2022/01/08 15:40:54;;;;;;;17.77;5.03;;;;;;;;;;5018813;28;20166;-84
2022/01/08 15:45:51;;;;;;;11.93;4.97;;;;;;;;;;5035330;28;20041;-84
2022/01/08 15:48:18;;;;;;;12.68;4.75;;;;;;;;;;5029208;28;20028;-84
2022/01/08 15:55:55;;;;;;;20.17;5.38;;;;;;;;;;5040616;22;20038;-85
2022/01/08 16:01:01;;;;;;;9.32;4.68;;;;;;;;;;5080847;23;20351;-85
2022/01/08 16:03:27;;;;;;;13.98;6.32;;;;;;;;;;5039571;28;20383;-84
2022/01/08 16:05:53;;;;;;;20.00;5.88;;;;;;;;;;5056856;28;20048;-83
2022/01/08 16:08:21;;;;;;;12.90;5.75;;;;;;;;;;5039317;28;20013;-85
2022/01/08 16:10:47;;;;;;;9.75;4.03;;;;;;;;;;5040211;28;20012;-85
2022/01/08 16:13:13;;;;;;;9.15;4.00;;;;;;;;;;5034220;28;20030;-80
2022/01/08 16:15:38;;;;;;;9.15;2.80;;;;;;;;;;5026814;28;20024;-80
2022/01/08 16:18:03;;;;;;;7.55;2.58;;;;;;;;;;5026105;28;20535;-80
2022/01/08 16:20:29;;;;;;;9.98;2.78;;;;;;;;;;5041953;28;20036;-80
2022/01/08 16:22:54;;;;;;;7.32;3.13;;;;;;;;;;5043393;28;20040;-81
2022/01/08 16:25:19;;;;;;;8.43;2.92;;;;;;;;;;5038466;28;20029;-80
2022/01/08 16:27:44;;;;;;;12.88;3.25;;;;;;;;;;5036333;28;20030;-80
2022/01/08 16:30:10;;;;;;;8.00;2.67;;;;;;;;;;5004490;28;20057;-81
2022/01/08 16:32:35;;;;;;;10.15;2.60;;;;;;;;;;5003264;28;20469;-80
2022/01/08 16:35:00;;;;;;;6.47;2.42;;;;;;;;;;5020661;28;20029;-80
2022/01/08 16:37:26;;;;;;;6.95;2.45;;;;;;;;;;5021265;28;20377;-81
2022/01/08 16:39:51;;;;;;;6.28;2.00;;;;;;;;;;5003399;28;20021;-79
2022/01/08 16:42:16;;;;;;;7.50;2.40;;;;;;;;;;5021506;28;20018;-80
2022/01/08 16:44:41;;;;;;;6.97;2.55;;;;;;;;;;5021354;28;20448;-80
2022/01/08 16:47:07;;;;;;;8.05;2.58;;;;;;;;;;5020579;28;20559;-80
2022/01/08 16:49:32;;;;;;;11.38;2.80;;;;;;;;;;5020621;28;20022;-80
2022/01/08 16:51:58;;;;;;;8.10;3.03;;;;;;;;;;5001617;28;20385;-80
2022/01/08 16:54:23;;;;;;;15.55;3.33;;;;;;;;;;5001966;28;20469;-80
2022/01/08 16:56:48;;;;;;;11.00;2.70;;;;;;;;;;5023063;28;20017;-81
2022/01/08 16:59:14;;;;;;;9.02;3.33;;;;;;;;;;5026896;28;20037;-81
2022/01/08 17:01:39;;;;;;;11.00;3.40;;;;;;;;;;5040858;28;20476;-82
2022/01/08 17:04:08;;;;;;;8.25;4.22;;;;;;;;;;5047908;28;20048;-82
2022/01/08 17:06:34;;;;;;;13.40;4.30;;;;;;;;;;5064376;22;21012;-83
2022/01/08 17:08:59;;;;;;;16.50;4.85;;;;;;;;;;5035367;28;20093;-81
2022/01/08 17:11:24;;;;;;;11.27;3.72;;;;;;;;;;5056614;28;20020;-81
2022/01/08 17:13:50;;;;;;;13.23;4.63;;;;;;;;;;5057963;28;20056;-80
2022/01/08 17:16:15;;;;;;;11.10;4.20;;;;;;;;;;5056915;28;20030;-81
2022/01/08 17:18:41;;;;;;;10.70;4.40;;;;;;;;;;5054305;28;20013;-80
2022/01/08 17:21:06;;;;;;;14.85;5.72;;;;;;;;;;5054044;28;20460;-80
2022/01/08 17:23:32;;;;;;;12.77;5.55;;;;;;;;;;5055029;28;20086;-81
2022/01/08 17:25:58;;;;;;;15.70;5.28;;;;;;;;;;5039436;28;20022;-82
2022/01/08 17:28:25;;;;;;;13.40;4.90;;;;;;;;;;5054722;28;20013;-79
2022/01/08 17:30:50;;;;;;;9.68;4.28;;;;;;;;;;5037350;28;20021;-80
2022/01/08 17:33:15;;;;;;;13.43;5.93;;;;;;;;;;5036566;28;20022;-80
2022/01/08 17:35:41;;;;;;;10.05;4.15;;;;;;;;;;5051604;28;20017;-79
2022/01/08 17:38:06;;;;;;;11.13;4.85;;;;;;;;;;5053514;28;20028;-79
2022/01/08 17:40:32;;;;;;;11.93;4.80;;;;;;;;;;5054342;28;20088;-81
2022/01/08 17:42:57;;;;;;;12.07;4.30;;;;;;;;;;5053453;28;20013;-81
2022/01/08 17:45:23;;;;;;;9.60;4.18;;;;;;;;;;5053333;28;20033;-80
2022/01/08 17:47:48;;;;;;;9.25;4.80;;;;;;;;;;5052949;28;20032;-80
2022/01/08 17:50:14;;;;;;;8.85;4.68;;;;;;;;;;5053979;28;20049;-81
2022/01/08 17:52:39;;;;;;;10.18;4.53;;;;;;;;;;5052472;28;20013;-79
2022/01/08 17:55:05;;;;;;;7.53;4.25;;;;;;;;;;5051063;28;20480;-80
2022/01/08 17:57:30;;;;;;;10.68;4.22;;;;;;;;;;5053224;28;20040;-80
2022/01/08 17:59:55;;;;;;;10.90;4.22;;;;;;;;;;5052395;28;20014;-80
2022/01/08 18:02:20;;;;;;;12.10;5.22;;;;;;;;;;5033265;28;20093;-80
2022/01/08 18:04:46;;;;;;;11.10;5.22;;;;;;;;;;5054339;28;20009;-78
2022/01/08 18:07:12;;;;;;;13.45;4.32;;;;;;;;;;5038272;28;20495;-80
2022/01/08 18:09:39;;;;;;;12.65;3.88;;;;;;;;;;5036882;28;20057;-80
2022/01/08 18:12:05;;;;;;;9.27;3.90;;;;;;;;;;5053085;28;20059;-79
2022/01/08 18:14:30;;;;;;;8.50;3.88;;;;;;;;;;5052971;28;20013;-79
2022/01/08 18:16:55;;;;;;;11.80;4.20;;;;;;;;;;5035692;28;20017;-79
2022/01/08 18:19:22;;;;;;;12.23;4.15;;;;;;;;;;5060364;28;20021;-79
2022/01/08 18:21:48;;;;;;;11.55;4.97;;;;;;;;;;5038458;28;20040;-80
2022/01/08 18:24:13;;;;;;;8.32;3.83;;;;;;;;;;5037114;28;20093;-81
2022/01/08 18:26:38;;;;;;;8.20;3.80;;;;;;;;;;5053680;28;20097;-81
2022/01/08 18:29:03;;;;;;;7.28;3.75;;;;;;;;;;5051337;28;20047;-80
2022/01/08 18:31:32;;;;;;;21.67;4.18;;;;;;;;;;5047629;28;20082;-79
2022/01/08 18:33:58;;;;;;;11.35;4.60;;;;;;;;;;5049980;28;20044;-80
2022/01/08 18:36:23;;;;;;;13.32;4.82;;;;;;;;;;5049909;28;20026;-82
2022/01/08 18:38:49;;;;;;;10.15;4.25;;;;;;;;;;5050291;28;20045;-80
2022/01/08 18:41:14;;;;;;;7.70;4.32;;;;;;;;;;5031348;28;20092;-80
2022/01/08 18:43:39;;;;;;;10.35;4.18;;;;;;;;;;5048791;28;20322;-80
2022/01/08 18:46:04;;;;;;;12.32;5.72;;;;;;;;;;5044249;28;20468;-81
2022/01/08 18:48:34;;;;;;;14.43;5.25;;;;;;;;;;5043240;28;20083;-81
2022/01/08 18:50:59;;;;;;;7.93;3.30;;;;;;;;;;5047447;28;20017;-81
2022/01/08 18:53:24;;;;;;;8.13;3.97;;;;;;;;;;5030568;28;20445;-81
2022/01/08 18:55:49;;;;;;;9.38;4.10;;;;;;;;;;5049079;28;20080;-81
2022/01/08 18:58:15;;;;;;;10.35;3.90;;;;;;;;;;5026692;28;20033;-81
2022/01/08 19:00:40;;;;;;;7.50;3.58;;;;;;;;;;5054877;28;20012;-81
2022/01/08 19:03:05;;;;;;;10.45;4.30;;;;;;;;;;5056795;28;20610;-81
2022/01/08 19:05:31;;;;;;;11.10;4.18;;;;;;;;;;5040676;28;20036;-81
2022/01/08 19:07:56;;;;;;;12.20;3.97;;;;;;;;;;5057761;28;20052;-82
2022/01/08 19:10:22;;;;;;;10.63;3.53;;;;;;;;;;5054036;28;20107;-82
2022/01/08 19:12:47;;;;;;;10.38;3.80;;;;;;;;;;5035434;28;20036;-81
2022/01/08 19:15:12;;;;;;;6.97;2.83;;;;;;;;;;5045094;28;20049;-81
2022/01/08 19:17:39;;;;;;;12.38;3.35;;;;;;;;;;5071858;28;20432;-83
2022/01/08 19:20:05;;;;;;;8.68;3.50;;;;;;;;;;5070870;28;20037;-83
2022/01/08 19:22:32;;;;;;;8.98;3.05;;;;;;;;;;5062850;28;20067;-82
2022/01/08 19:24:58;;;;;;;9.27;2.97;;;;;;;;;;5046828;28;20025;-81
2022/01/08 19:27:23;;;;;;;11.95;4.50;;;;;;;;;;5045609;28;20039;-80
2022/01/08 19:29:48;;;;;;;10.63;3.55;;;;;;;;;;5044271;28;20081;-81
2022/01/08 19:32:14;;;;;;;8.52;3.78;;;;;;;;;;5032649;28;20025;-81
2022/01/08 19:34:41;;;;;;;13.27;4.10;;;;;;;;;;5035902;28;20020;-81
2022/01/08 19:37:10;;;;;;;8.02;3.80;;;;;;;;;;5053754;28;19998;-83
2022/01/08 19:39:36;;;;;;;9.68;3.55;;;;;;;;;;5034331;28;20021;-81
2022/01/08 19:42:02;;;;;;;11.73;3.33;;;;;;;;;;5043258;28;20021;-81
2022/01/08 19:44:34;;;;;;;7.05;3.53;;;;;;;;;;5028016;28;20033;-81
2022/01/08 19:47:00;;;;;;;11.32;3.55;;;;;;;;;;5045498;28;20029;-81
2022/01/08 19:49:25;;;;;;;9.55;3.60;;;;;;;;;;5047483;28;20026;-82
2022/01/08 19:51:50;;;;;;;8.20;3.75;;;;;;;;;;5044824;28;20064;-82
2022/01/08 19:54:16;;;;;;;7.72;3.33;;;;;;;;;;5045773;28;20010;-83
2022/01/08 19:56:41;;;;;;;9.05;3.28;;;;;;;;;;5046602;28;20026;-82
2022/01/08 19:59:06;;;;;;;7.85;3.40;;;;;;;;;;5049167;28;20017;-84
2022/01/08 20:01:31;;;;;;;8.65;3.92;;;;;;;;;;5032179;28;20025;-81
2022/01/08 20:03:57;;;;;;;8.00;3.65;;;;;;;;;;5050226;28;20017;-82
2022/01/08 20:06:23;;;;;;;7.38;3.60;;;;;;;;;;5038816;28;20021;-81
2022/01/08 20:08:49;;;;;;;11.38;3.95;;;;;;;;;;5034738;28;20079;-82
2022/01/08 20:11:14;;;;;;;14.30;3.95;;;;;;;;;;5049359;28;20030;-81
2022/01/08 20:13:39;;;;;;;9.52;4.15;;;;;;;;;;5046233;28;20020;-80
2022/01/08 20:16:04;;;;;;;9.60;3.92;;;;;;;;;;5043018;28;20021;-80
2022/01/08 20:18:30;;;;;;;8.35;3.72;;;;;;;;;;5043586;28;20014;-81
2022/01/08 20:20:55;;;;;;;10.23;3.33;;;;;;;;;;5043996;28;20096;-82
2022/01/08 20:23:20;;;;;;;11.07;4.07;;;;;;;;;;5047221;28;20041;-82
2022/01/08 20:25:47;;;;;;;7.18;3.35;;;;;;;;;;5040033;28;20030;-84
2022/01/08 20:28:12;;;;;;;10.73;4.05;;;;;;;;;;5060442;28;20029;-83
2022/01/08 20:30:38;;;;;;;12.35;3.92;;;;;;;;;;5060515;28;20032;-84
2022/01/08 20:35:41;;;;;;;11.30;3.45;;;;;;;;;;5151161;22;20481;-83
2022/01/08 20:38:09;;;;;;;9.82;3.75;;;;;;;;;;5060743;28;20025;-85
2022/01/08 20:40:38;;;;;;;9.73;3.97;;;;;;;;;;5043166;28;20034;-84
2022/01/08 20:43:03;;;;;;;;;;;;;;;;;;5044599;28;20033;-84
2022/01/08 20:45:33;;;;;;;7.15;3.20;;;;;;;;;;5060196;28;19909;-86
2022/01/08 20:47:59;;;;;;;10.77;3.70;;;;;;;;;;5060700;28;20072;-85
2022/01/08 20:50:29;;;;;;;8.25;3.60;;;;;;;;;;5060349;28;20040;-85
2022/01/08 20:52:54;;;;;;;9.07;4.05;;;;;;;;;;5060791;28;20002;-87
2022/01/08 20:55:22;;;;;;;8.52;3.58;;;;;;;;;;5060828;28;20016;-84
2022/01/08 20:57:58;;;;;;;9.25;3.97;;;;;;;;;;5060092;28;20101;-84
2022/01/08 21:03:09;;;;;;;11.13;3.80;;;;;;;;;;6146517;22;21066;-83
2022/01/08 21:05:34;;;;;;;8.27;3.60;;;;;;;;;;5059757;28;20014;-84
2022/01/08 21:08:06;;;;;;;7.03;3.25;;;;;;;;;;5068714;28;20009;-86
2022/01/08 21:10:32;;;;;;;9.88;3.53;;;;;;;;;;5063241;28;20016;-86
2022/01/08 21:12:58;;;;;;;10.68;4.07;;;;;;;;;;5062271;28;20001;-82
2022/01/08 21:15:26;;;;;;;11.20;3.50;;;;;;;;;;5080011;28;20084;-84
2022/01/08 21:23:05;;;;;;;8.95;3.40;;;;;;;;;;6026585;22;20958;-84
2022/01/08 21:25:32;;;;;;;7.40;3.13;;;;;;;;;;5043225;28;20026;-85
2022/01/08 21:30:37;;;;;;;7.53;2.50;;;;;;;;;;5332957;22;20053;-85
2022/01/08 21:35:42;;;;;;;6.70;2.90;;;;;;;;;;5466029;22;20025;-84
2022/01/08 21:38:07;;;;;;;;;;;;;;;;;;5712877;22;20045;-81
2022/01/08 21:40:33;;;;;;;5.68;2.45;;;;;;;;;;5019132;28;19972;-83
2022/01/08 21:42:59;;;;;;;7.47;2.13;;;;;;;;;;5007472;28;20085;-81
2022/01/08 21:45:25;;;;;;;8.27;2.47;;;;;;;;;;5014404;28;20088;-82
2022/01/08 21:47:50;;;;;;;6.82;2.40;;;;;;;;;;4992512;28;20026;-81
2022/01/08 21:50:17;;;;;;;6.75;2.55;;;;;;;;;;5031604;28;20026;-81
2022/01/08 21:52:43;;;;;;;12.45;2.85;;;;;;;;;;5023196;28;20237;-81
2022/01/08 21:55:09;;;;;;;9.98;2.83;;;;;;;;;;5031813;28;20060;-82
2022/01/08 21:57:35;;;;;;;6.20;2.80;;;;;;;;;;5035075;28;20021;-82
2022/01/08 22:00:03;;;;;;;5.88;2.60;;;;;;;;;;5020023;28;20040;-81
2022/01/08 22:02:29;;;;;;;6.57;2.97;;;;;;;;;;5034709;28;20033;-81
2022/01/08 22:04:54;;;;;;;8.13;2.60;;;;;;;;;;5038072;28;20034;-81
2022/01/08 22:07:20;;;;;;;7.25;2.72;;;;;;;;;;5026498;28;20009;-81
2022/01/08 22:09:45;;;;;;;7.15;2.80;;;;;;;;;;5052916;28;20042;-82
2022/01/08 22:12:11;;;;;;;4.70;2.40;;;;;;;;;;5046540;28;20030;-81
2022/01/08 22:14:37;;;;;;;4.82;2.30;;;;;;;;;;5035340;28;20048;-82
2022/01/08 22:17:02;;;;;;;5.15;2.38;;;;;;;;;;5020329;28;20029;-81
2022/01/08 22:19:27;;;;;;;6.10;2.88;;;;;;;;;;5034873;28;20036;-82
2022/01/08 22:21:53;;;;;;;8.15;3.00;;;;;;;;;;5040856;28;20100;-80
2022/01/08 22:24:21;;;;;;;5.50;2.70;;;;;;;;;;5049628;28;20018;-82
2022/01/08 22:26:46;;;;;;;5.97;2.60;;;;;;;;;;5022291;28;20022;-82
2022/01/08 22:29:18;;;;;;;4.60;2.10;;;;;;;;;;5027126;28;20109;-85
2022/01/08 22:31:48;;;;;;;5.93;2.53;;;;;;;;;;5039629;28;20017;-85
2022/01/08 22:34:15;;;;;;;5.22;2.50;;;;;;;;;;5028812;28;20017;-85
2022/01/08 22:36:43;;;;;;;6.70;2.42;;;;;;;;;;5035210;28;20017;-86
2022/01/08 22:39:11;;;;;;;7.88;2.47;;;;;;;;;;5036166;28;20025;-87
2022/01/08 22:41:37;;;;;;;5.60;2.40;;;;;;;;;;5029396;28;20036;-81
2022/01/08 22:44:08;;;;;;;12.10;3.33;;;;;;;;;;5043221;28;20045;-82
2022/01/08 22:46:34;;;;;;;4.93;1.90;;;;;;;;;;5032015;28;20021;-85
2022/01/08 22:49:08;;;;;;;11.90;2.53;;;;;;;;;;5031128;28;20060;-83
2022/01/08 22:51:33;;;;;;;4.88;2.47;;;;;;;;;;5045339;28;20009;-84
2022/01/08 22:53:59;;;;;;;5.70;2.30;;;;;;;;;;5051050;28;20545;-83
2022/01/08 22:56:25;;;;;;;6.10;2.70;;;;;;;;;;5030201;28;20018;-82
2022/01/08 22:58:50;;;;;;;5.93;2.50;;;;;;;;;;5048783;28;20013;-86
2022/01/08 23:01:16;;;;;;;6.25;2.20;;;;;;;;;;5046047;28;20052;-83
2022/01/08 23:03:44;;;;;;;8.10;2.42;;;;;;;;;;5047051;28;20515;-84
2022/01/08 23:06:13;;;;;;;4.90;2.40;;;;;;;;;;5046248;28;20037;-85
2022/01/08 23:08:39;;;;;;;4.25;2.40;;;;;;;;;;5027110;28;20053;-84
2022/01/08 23:11:12;;;;;;;6.28;2.33;;;;;;;;;;5028656;28;20033;-86
2022/01/08 23:13:38;;;;;;;7.97;2.90;;;;;;;;;;5047551;28;20077;-85
2022/01/08 23:16:16;;;;;;;5.85;2.50;;;;;;;;;;5034210;28;20032;-84
2022/01/08 23:18:44;;;;;;;5.20;2.13;;;;;;;;;;5035275;28;20026;-86
2022/01/08 23:21:13;;;;;;;6.97;2.15;;;;;;;;;;5034431;28;20025;-84
2022/01/08 23:23:39;;;;;;;9.25;2.78;;;;;;;;;;5034813;28;20034;-86
2022/01/08 23:26:05;;;;;;;4.63;2.38;;;;;;;;;;5032993;28;20033;-84
2022/01/08 23:28:33;;;;;;;4.18;1.95;;;;;;;;;;5035133;28;20028;-86
2022/01/08 23:31:00;;;;;;;4.80;2.03;;;;;;;;;;5033492;28;20025;-85
2022/01/08 23:33:26;;;;;;;11.13;2.92;;;;;;;;;;5049779;28;20025;-83
2022/01/08 23:35:51;;;;;;;5.25;2.35;;;;;;;;;;5049011;28;20120;-85
2022/01/08 23:38:16;;;;;;;8.55;2.75;;;;;;;;;;5031315;28;20093;-84
2022/01/08 23:40:42;;;;;;;5.50;2.58;;;;;;;;;;5049706;28;20025;-84
2022/01/08 23:43:07;;;;;;;7.93;2.60;;;;;;;;;;5031777;28;20025;-85
2022/01/08 23:45:34;;;;;;;7.25;2.53;;;;;;;;;;5029406;28;20032;-84
2022/01/08 23:48:00;;;;;;;11.55;3.25;;;;;;;;;;5047800;28;20052;-84
2022/01/08 23:50:29;;;;;;;7.18;3.03;;;;;;;;;;5033820;28;20021;-85
2022/01/08 23:53:02;;;;;;;7.32;2.75;;;;;;;;;;5033389;28;20093;-85
2022/01/08 23:55:31;;;;;;;4.25;2.20;;;;;;;;;;5034313;28;20033;-85
2022/01/08 23:57:58;;;;;;;6.43;2.70;;;;;;;;;;5031383;28;20088;-84
